Time;durP1;ratioP1;P1;durP2;ratioP2;P2;SDS_P1;SDS_P2;PMS_P1;PMS_P2;Temp;Humidity;BMP_temperature;BMP_pressure;BME280_temperature;BME280_humidity;BME280_pressure;Samples;Min_cycle;Max_cycle;Signal;HPM_P1;HPM_P2
2023/12/15 00:00:30;;;;;;;3.63;2.42;;;;;;;11.75;100.00;98915.25;4960340;28;20031;-70
2023/12/15 00:02:56;;;;;;;3.75;1.80;;;;;;;11.95;100.00;98960.94;4962454;28;20031;-71
2023/12/15 00:05:22;;;;;;;2.33;1.50;;;;;;;11.74;100.00;98918.72;4959044;28;20039;-71
2023/12/15 00:07:47;;;;;;;1.98;1.40;;;;;;;11.78;100.00;98891.38;4960175;28;20489;-70
2023/12/15 00:10:13;;;;;;;1.77;1.30;;;;;;;11.62;100.00;98862.47;4958900;28;20042;-70
2023/12/15 00:12:38;;;;;;;1.80;1.33;;;;;;;11.69;100.00;98859.56;4960236;28;20035;-70
2023/12/15 00:15:05;;;;;;;2.28;1.42;;;;;;;11.95;100.00;98940.56;4957583;28;20392;-70
2023/12/15 00:17:30;;;;;;;1.65;1.20;;;;;;;11.54;100.00;98855.22;4954557;28;20135;-70
2023/12/15 00:19:55;;;;;;;3.33;1.50;;;;;;;11.50;100.00;98847.78;4961916;28;20122;-70
2023/12/15 00:22:21;;;;;;;2.72;1.52;;;;;;;11.87;100.00;98935.00;4963049;28;20035;-71
2023/12/15 00:24:46;;;;;;;1.83;1.33;;;;;;;11.66;100.00;98879.25;4956537;28;20036;-71
2023/12/15 00:27:12;;;;;;;0.90;0.80;;;;;;;11.21;100.00;98806.00;4957316;28;20031;-70
2023/12/15 00:29:37;;;;;;;1.40;1.25;;;;;;;11.94;100.00;98935.53;4980419;28;20176;-70
2023/12/15 00:32:03;;;;;;;1.40;1.08;;;;;;;11.87;100.00;98901.91;4962261;28;20113;-71
2023/12/15 00:34:29;;;;;;;1.60;0.90;;;;;;;11.10;100.00;98777.72;4981061;28;20039;-71
2023/12/15 00:36:55;;;;;;;3.00;1.33;;;;;;;11.82;100.00;98893.69;4980259;28;20070;-70
2023/12/15 00:39:20;;;;;;;1.02;0.93;;;;;;;11.75;100.00;98876.22;4979179;28;20046;-70
2023/12/15 00:41:46;;;;;;;1.83;1.17;;;;;;;11.78;100.00;98884.56;4978809;28;20084;-71
2023/12/15 00:44:11;;;;;;;2.40;0.90;;;;;;;11.91;100.00;98880.47;4976049;28;20436;-70
2023/12/15 00:46:37;;;;;;;2.05;0.80;;;;;;;11.70;100.00;98840.84;4974162;28;20113;-70
2023/12/15 00:49:02;;;;;;;2.30;1.00;;;;;;;11.30;100.00;98819.09;4960093;28;20189;-71
2023/12/15 00:51:28;;;;;;;1.45;0.90;;;;;;;11.35;100.00;98813.75;4958661;28;20416;-70
2023/12/15 00:53:54;;;;;;;1.60;0.80;;;;;;;11.53;100.00;98842.56;4979833;28;20389;-69
2023/12/15 00:56:19;;;;;;;0.95;0.73;;;;;;;11.12;100.00;98770.84;4958251;28;20061;-70
2023/12/15 00:58:45;;;;;;;0.98;0.70;;;;;;;11.57;100.00;98844.84;4979074;28;20045;-70
2023/12/15 01:01:11;;;;;;;1.00;0.60;;;;;;;11.55;100.00;98858.59;4966865;28;20034;-70
2023/12/15 01:03:37;;;;;;;0.95;0.60;;;;;;;11.48;100.00;98847.03;4960135;28;20034;-70
2023/12/15 01:06:03;;;;;;;0.70;0.52;;;;;;;11.02;100.00;98769.63;4979922;28;20026;-70
2023/12/15 01:08:28;;;;;;;0.65;0.50;;;;;;;11.23;100.00;98827.91;4975881;28;20410;-70
2023/12/15 01:10:55;;;;;;;1.50;0.60;;;;;;;11.43;100.00;98908.34;4982895;28;20416;-70
2023/12/15 01:13:21;;;;;;;1.25;0.50;;;;;;;11.10;100.00;98788.72;4981149;28;20026;-70
2023/12/15 01:15:46;;;;;;;1.02;0.65;;;;;;;11.16;100.00;98795.22;4981567;28;20412;-72
2023/12/15 01:18:12;;;;;;;0.75;0.50;;;;;;;11.35;100.00;98823.94;4964513;28;20516;-70
2023/12/15 01:20:38;;;;;;;1.13;0.60;;;;;;;11.14;100.00;98807.19;4958224;28;20486;-70
2023/12/15 01:23:04;;;;;;;2.28;0.60;;;;;;;10.98;100.00;98768.97;4980345;28;20038;-70
2023/12/15 01:25:29;;;;;;;0.90;0.50;;;;;;;11.34;100.00;98857.91;4965438;28;20031;-70
2023/12/15 01:27:55;;;;;;;1.00;0.70;;;;;;;11.11;100.00;98810.69;4979918;28;20078;-70
2023/12/15 01:30:20;;;;;;;0.50;0.50;;;;;;;11.35;100.00;98855.28;4977210;28;20045;-70
2023/12/15 01:32:46;;;;;;;0.82;0.70;;;;;;;11.31;100.00;98833.44;4979850;28;20030;-74
2023/12/15 01:35:11;;;;;;;1.05;0.88;;;;;;;11.25;100.00;98899.06;4980416;28;20038;-70
2023/12/15 01:37:37;;;;;;;0.93;0.70;;;;;;;10.90;100.00;98831.25;4976962;28;20018;-70
2023/12/15 01:40:02;;;;;;;1.00;0.63;;;;;;;11.26;100.00;98881.19;4967510;28;21449;-70
2023/12/15 01:42:28;;;;;;;0.90;0.80;;;;;;;11.15;100.00;98895.31;4978197;28;20144;-71
2023/12/15 01:44:54;;;;;;;0.77;0.70;;;;;;;11.05;100.00;98850.88;4961507;28;20754;-70
2023/12/15 01:47:21;;;;;;;0.77;0.70;;;;;;;11.39;100.00;98880.59;4963577;28;20062;-70
2023/12/15 01:49:47;;;;;;;1.70;0.77;;;;;;;10.84;100.00;98851.88;4982728;28;20026;-74
2023/12/15 01:52:13;;;;;;;1.77;0.70;;;;;;;10.49;100.00;98779.84;4984655;28;20038;-70
2023/12/15 01:54:39;;;;;;;0.63;0.60;;;;;;;11.15;100.00;98888.50;4958323;28;20114;-71
2023/12/15 01:57:07;;;;;;;1.52;0.70;;;;;;;10.76;100.00;98848.88;4962376;28;20393;-69
2023/12/15 01:59:46;;;;;;;0.57;0.50;;;;;;;11.28;100.00;98904.84;4976631;28;20030;-70
2023/12/15 02:02:12;;;;;;;0.60;0.43;;;;;;;11.29;100.00;98957.34;4964543;28;20041;-70
2023/12/15 02:04:39;;;;;;;1.08;0.43;;;;;;;10.95;100.00;98864.94;4974578;28;20038;-70
2023/12/15 02:07:04;;;;;;;0.90;0.75;;;;;;;11.43;100.00;98933.78;4962861;28;20507;-70
2023/12/15 02:09:30;;;;;;;0.70;0.45;;;;;;;10.94;100.00;98860.72;4979156;28;20042;-70
2023/12/15 02:11:55;;;;;;;1.92;0.63;;;;;;;10.76;100.00;98875.13;4977636;28;20122;-71
2023/12/15 02:14:21;;;;;;;0.60;0.50;;;;;;;11.22;100.00;98945.84;4963841;28;20562;-70
2023/12/15 02:16:46;;;;;;;0.55;0.50;;;;;;;11.29;100.00;98964.97;4957483;28;20030;-70
2023/12/15 02:19:12;;;;;;;0.60;0.50;;;;;;;10.80;100.00;98891.06;4978116;28;20038;-70
2023/12/15 02:21:38;;;;;;;0.77;0.50;;;;;;;10.87;100.00;98912.78;4979150;28;20152;-72
2023/12/15 02:24:03;;;;;;;0.70;0.50;;;;;;;11.13;100.00;98965.78;4957754;28;20045;-69
2023/12/15 02:26:29;;;;;;;0.47;0.40;;;;;;;10.76;100.00;98910.72;4977980;28;20034;-69
2023/12/15 02:28:54;;;;;;;0.85;0.40;;;;;;;11.01;100.00;98911.22;4977280;28;20549;-70
2023/12/15 02:31:21;;;;;;;0.82;0.35;;;;;;;11.09;100.00;98980.34;4982797;28;20030;-75
2023/12/15 02:33:47;;;;;;;0.73;0.40;;;;;;;11.08;100.00;98924.47;4985910;28;20050;-69
2023/12/15 02:36:23;;;;;;;0.85;0.47;;;;;;;10.67;100.00;98910.31;4981921;28;20118;-70
2023/12/15 02:38:48;;;;;;;1.05;0.50;;;;;;;10.77;100.00;98952.22;4968499;28;20042;-69
2023/12/15 02:41:14;;;;;;;0.77;0.40;;;;;;;10.76;100.00;98955.63;4966037;28;20030;-70
2023/12/15 02:43:40;;;;;;;0.80;0.40;;;;;;;11.08;100.00;99038.91;4965429;28;20187;-70
2023/12/15 02:46:06;;;;;;;0.40;0.40;;;;;;;11.09;100.00;99056.66;4981376;28;20030;-69
2023/12/15 02:48:32;;;;;;;0.65;0.40;;;;;;;11.01;100.00;99002.75;4964825;28;20038;-70
2023/12/15 02:50:57;;;;;;;0.50;0.45;;;;;;;11.07;100.00;99043.16;4961977;28;20030;-70
2023/12/15 02:53:23;;;;;;;1.42;0.40;;;;;;;10.95;100.00;99053.88;4966925;28;20034;-70
2023/12/15 02:55:49;;;;;;;0.50;0.50;;;;;;;10.65;100.00;99013.75;4983308;28;20069;-70
2023/12/15 02:58:15;;;;;;;0.40;0.40;;;;;;;10.68;100.00;99034.78;4982150;28;20501;-69
2023/12/15 03:00:41;;;;;;;0.60;0.60;;;;;;;10.84;100.00;99132.38;4978248;28;20037;-70
2023/12/15 03:03:06;;;;;;;0.50;0.50;;;;;;;10.80;100.00;99084.25;4982429;28;20040;-70
2023/12/15 03:05:32;;;;;;;0.60;0.60;;;;;;;10.86;100.00;99076.34;4961650;28;20382;-69
2023/12/15 03:07:57;;;;;;;0.70;0.60;;;;;;;10.51;100.00;99049.09;4970703;28;20026;-70
2023/12/15 03:10:23;;;;;;;1.02;0.50;;;;;;;10.04;100.00;98978.25;4962656;28;20465;-70
2023/12/15 03:12:48;;;;;;;0.70;0.60;;;;;;;10.48;100.00;99078.84;4962846;28;20077;-70
2023/12/15 03:15:14;;;;;;;0.52;0.47;;;;;;;10.42;100.00;99096.88;4959665;28;20027;-71
2023/12/15 03:17:39;;;;;;;0.90;0.60;;;;;;;10.81;100.00;99177.44;4985026;28;20418;-69
2023/12/15 03:20:07;;;;;;;0.73;0.70;;;;;;;10.78;100.00;99192.81;4961773;28;20041;-71
2023/12/15 03:22:33;;;;;;;0.50;0.50;;;;;;;10.25;100.00;99114.53;4966969;28;20037;-69
2023/12/15 03:24:58;;;;;;;0.88;0.63;;;;;;;10.72;100.00;99243.91;4982529;28;20485;-70
2023/12/15 03:27:24;;;;;;;0.90;0.65;;;;;;;10.73;100.00;99237.94;4982760;28;20076;-71
2023/12/15 03:29:50;;;;;;;0.70;0.60;;;;;;;10.35;100.00;99163.25;4977458;28;20075;-69
2023/12/15 03:32:16;;;;;;;0.93;0.60;;;;;;;10.36;100.00;99185.22;4982951;28;20035;-71
2023/12/15 03:34:41;;;;;;;0.55;0.50;;;;;;;10.08;100.00;99156.69;4967196;28;20478;-70
2023/12/15 03:37:08;;;;;;;1.35;0.70;;;;;;;10.68;100.00;99257.63;4964919;28;20039;-69
2023/12/15 03:39:34;;;;;;;2.25;1.20;;;;;;;10.20;100.00;99181.66;4964960;28;20494;-72
2023/12/15 03:42:06;;;;;;;0.90;0.60;;;;;;;10.20;100.00;99195.16;4962110;28;20416;-71
2023/12/15 03:44:32;;;;;;;1.02;0.65;;;;;;;10.68;100.00;99288.13;4964714;28;20038;-71
2023/12/15 03:46:57;;;;;;;1.00;0.45;;;;;;;10.68;100.00;99319.44;4981153;28;20133;-70
2023/12/15 03:49:23;;;;;;;1.23;0.40;;;;;;;10.24;100.00;99246.69;4977893;28;20556;-74
2023/12/15 03:51:48;;;;;;;0.40;0.40;;;;;;;10.61;100.00;99325.69;4987813;28;20034;-72
2023/12/15 03:54:14;;;;;;;0.45;0.45;;;;;;;10.54;100.00;99309.00;4960688;28;20035;-70
2023/12/15 03:56:39;;;;;;;0.30;0.25;;;;;;;10.53;100.00;99344.63;4963102;28;20165;-70
2023/12/15 03:59:05;;;;;;;0.25;0.20;;;;;;;10.57;100.00;99351.25;4981362;28;20053;-72
2023/12/15 04:01:31;;;;;;;0.40;0.30;;;;;;;10.44;100.00;99326.31;4966055;28;21615;-71
2023/12/15 04:03:57;;;;;;;1.15;0.55;;;;;;;10.52;100.00;99312.50;4967070;28;20041;-72
2023/12/15 04:06:23;;;;;;;0.57;0.50;;;;;;;10.44;100.00;99345.81;4969625;28;20046;-72
2023/12/15 04:08:48;;;;;;;1.58;0.82;;;;;;;10.10;100.00;99305.59;4960201;28;20026;-72
2023/12/15 04:11:17;;;;;;;0.98;0.70;;;;;;;9.98;100.00;99279.81;4966672;28;20030;-70
2023/12/15 04:13:43;;;;;;;1.35;0.50;;;;;;;10.44;100.00;99374.59;4967637;28;20073;-71
2023/12/15 04:16:08;;;;;;;1.05;0.43;;;;;;;9.98;100.00;99287.44;4965989;28;20468;-70
2023/12/15 04:18:34;;;;;;;0.52;0.40;;;;;;;10.10;100.00;99309.88;4964612;28;20531;-70
2023/12/15 04:21:02;;;;;;;0.70;0.40;;;;;;;9.79;100.00;99274.56;4984220;28;20432;-72
2023/12/15 04:23:28;;;;;;;0.50;0.43;;;;;;;10.16;100.00;99338.38;4983151;28;20030;-73
2023/12/15 04:25:53;;;;;;;0.47;0.40;;;;;;;10.39;100.00;99408.69;4979681;28;20056;-70
2023/12/15 04:28:19;;;;;;;0.40;0.32;;;;;;;10.29;100.00;99384.50;4982083;28;20053;-71
2023/12/15 04:30:45;;;;;;;0.30;0.30;;;;;;;10.29;100.00;99405.66;4984014;28;20038;-75
2023/12/15 04:33:11;;;;;;;1.40;0.40;;;;;;;10.40;100.00;99426.41;4964860;28;20440;-70
2023/12/15 04:35:36;;;;;;;0.50;0.50;;;;;;;10.33;100.00;99424.16;4981715;28;20035;-72
2023/12/15 04:38:01;;;;;;;0.90;0.70;;;;;;;10.06;100.00;99381.94;4982524;28;20026;-70
2023/12/15 04:40:27;;;;;;;0.75;0.73;;;;;;;9.98;100.00;99374.56;4984756;28;20026;-74
2023/12/15 04:42:52;;;;;;;2.40;0.90;;;;;;;10.48;100.00;99443.91;4980565;28;20096;-71
2023/12/15 04:45:18;;;;;;;2.00;1.30;;;;;;;10.06;100.00;99402.25;4966070;28;20390;-71
2023/12/15 04:47:43;;;;;;;1.88;1.45;;;;;;;10.42;100.00;99426.34;4964810;28;20133;-70
2023/12/15 04:50:08;;;;;;;1.35;0.85;;;;;;;10.42;100.00;99494.94;4966232;28;20421;-72
2023/12/15 04:52:34;;;;;;;1.08;0.60;;;;;;;10.37;100.00;99484.97;4965743;28;20022;-71
2023/12/15 04:55:00;;;;;;;1.00;0.70;;;;;;;10.13;100.00;99444.34;4982374;28;20049;-73
2023/12/15 04:57:25;;;;;;;1.75;0.80;;;;;;;10.14;100.00;99454.44;4967932;28;20049;-72
2023/12/15 04:59:50;;;;;;;1.67;0.88;;;;;;;10.43;100.00;99505.06;4964954;28;20121;-71
2023/12/15 05:02:16;;;;;;;2.15;1.33;;;;;;;10.60;100.00;99527.34;4979124;28;20485;-73
2023/12/15 05:04:41;;;;;;;3.63;2.40;;;;;;;10.86;100.00;99490.81;4984917;28;20030;-74
2023/12/15 05:07:07;;;;;;;7.50;3.40;;;;;;;10.74;100.00;99527.69;4984523;28;20042;-71
2023/12/15 05:09:32;;;;;;;4.57;3.20;;;;;;;10.51;100.00;99511.59;4984700;28;20034;-70
2023/12/15 05:11:57;;;;;;;6.70;3.33;;;;;;;10.14;100.00;99490.00;4981167;28;20030;-75
2023/12/15 05:14:23;;;;;;;4.10;1.55;;;;;;;10.42;100.00;99548.31;4981155;28;20038;-73
2023/12/15 05:16:48;;;;;;;2.92;1.70;;;;;;;10.37;100.00;99570.50;4965409;28;20037;-72
2023/12/15 05:19:13;;;;;;;4.07;1.60;;;;;;;10.15;100.00;99554.31;4963643;28;20121;-71
2023/12/15 05:21:39;;;;;;;5.07;2.42;;;;;;;10.36;100.00;99600.16;4979720;28;20488;-70
2023/12/15 05:24:05;;;;;;;8.40;6.88;;;;;;;10.53;100.00;99614.84;4982782;28;20038;-70
2023/12/15 05:26:30;;;;;;;5.28;3.60;;;;;;;10.46;100.00;99615.94;4964701;28;20038;-71
2023/12/15 05:28:56;;;;;;;4.18;2.40;;;;;;;10.41;100.00;99602.56;4981035;28;20081;-76
2023/12/15 05:31:22;;;;;;;5.70;2.90;;;;;;;10.28;100.00;99635.16;4981094;28;20100;-71
2023/12/15 05:33:50;;;;;;;3.78;2.63;;;;;;;10.34;100.00;99632.41;4981674;28;20037;-71
2023/12/15 05:36:18;;;;;;;5.25;2.25;;;;;;;9.59;100.00;99510.41;4978977;28;20050;-72
2023/12/15 05:38:43;;;;;;;3.88;1.73;;;;;;;10.16;100.00;99597.44;4983352;28;20409;-71
2023/12/15 05:41:08;;;;;;;3.65;2.53;;;;;;;10.00;100.00;99613.19;4981193;28;20030;-71
2023/12/15 05:43:34;;;;;;;2.67;1.92;;;;;;;10.29;100.00;99666.47;4982232;28;20049;-69
2023/12/15 05:46:01;;;;;;;4.50;1.20;;;;;;;10.27;100.00;99653.81;4975972;28;20086;-72
2023/12/15 05:48:27;;;;;;;1.55;0.90;;;;;;;9.87;100.00;99622.91;4978145;28;20031;-70
2023/12/15 05:50:52;;;;;;;1.23;0.88;;;;;;;10.29;100.00;99677.47;4980461;28;20053;-70
2023/12/15 05:53:17;;;;;;;3.65;3.35;;;;;;;10.27;100.00;99740.19;4961911;28;20049;-70
2023/12/15 05:55:43;;;;;;;1.10;0.80;;;;;;;9.79;100.00;99654.47;4965757;28;20038;-70
2023/12/15 05:58:08;;;;;;;4.75;1.20;;;;;;;10.06;100.00;99715.41;4965042;28;20034;-70
2023/12/15 06:00:34;;;;;;;3.00;1.20;;;;;;;10.17;100.00;99755.75;4957583;28;20122;-69
2023/12/15 06:02:59;;;;;;;2.05;1.05;;;;;;;9.93;100.00;99726.81;4963701;28;20203;-70
2023/12/15 06:05:26;;;;;;;2.50;1.08;;;;;;;9.90;100.00;99723.53;4981357;28;20035;-70
2023/12/15 06:07:52;;;;;;;2.40;1.17;;;;;;;10.08;100.00;99789.84;4984623;28;20038;-70
2023/12/15 06:10:17;;;;;;;1.40;1.00;;;;;;;9.49;100.00;99689.19;4961786;28;20026;-71
2023/12/15 06:12:44;;;;;;;7.30;1.92;;;;;;;10.12;100.00;99816.03;4980929;28;20058;-70
2023/12/15 06:15:09;;;;;;;5.90;1.73;;;;;;;10.05;100.00;99791.63;4962607;28;20037;-70
2023/12/15 06:17:35;;;;;;;7.93;3.92;;;;;;;9.69;100.00;99742.75;4966118;28;20030;-69
2023/12/15 06:20:01;;;;;;;5.38;2.92;;;;;;;10.02;100.00;99815.41;4981446;28;20031;-70
2023/12/15 06:22:26;;;;;;;5.57;3.88;;;;;;;9.65;100.00;99737.81;4984428;28;20030;-70
2023/12/15 06:24:51;;;;;;;6.20;2.90;;;;;;;10.01;100.00;99792.59;4968129;28;20030;-70
2023/12/15 06:27:17;;;;;;;6.57;2.22;;;;;;;10.15;100.00;99849.78;4981653;28;20030;-70
2023/12/15 06:29:42;;;;;;;4.53;2.30;;;;;;;9.82;100.00;99761.00;4981012;28;20073;-70
2023/12/15 06:32:10;;;;;;;4.75;2.65;;;;;;;9.99;100.00;99795.19;4966379;28;20121;-70
2023/12/15 06:34:37;;;;;;;4.07;2.60;;;;;;;9.83;100.00;99776.19;4988851;28;20488;-70
2023/12/15 06:37:02;;;;;;;10.20;4.57;;;;;;;9.70;100.00;99774.03;4982674;28;20417;-70
2023/12/15 06:39:28;;;;;;;10.95;5.35;;;;;;;10.10;100.00;99855.88;4962462;28;20031;-70
2023/12/15 06:41:53;;;;;;;9.43;5.90;;;;;;;9.83;100.00;99821.88;4967587;28;20046;-70
2023/12/15 06:44:18;;;;;;;10.00;5.82;;;;;;;9.93;100.00;99891.84;4984075;28;20412;-69
2023/12/15 06:46:45;;;;;;;8.18;4.88;;;;;;;9.82;100.00;99838.00;4960539;28;20496;-70
2023/12/15 06:49:11;;;;;;;8.48;5.10;;;;;;;9.81;100.00;99854.09;4966471;28;20038;-70
2023/12/15 06:51:36;;;;;;;10.20;7.90;;;;;;;9.36;100.00;99789.34;4968457;28;20037;-69
2023/12/15 06:54:04;;;;;;;7.32;4.40;;;;;;;9.77;100.00;99861.81;4965290;28;20038;-70
2023/12/15 06:56:30;;;;;;;5.30;4.10;;;;;;;9.57;100.00;99811.59;4967362;28;20030;-70
2023/12/15 06:58:55;;;;;;;3.05;2.03;;;;;;;9.30;100.00;99789.50;4979529;28;20076;-70
2023/12/15 07:01:21;;;;;;;7.05;2.60;;;;;;;9.70;100.00;99868.78;4963548;28;20050;-70
2023/12/15 07:03:48;;;;;;;4.80;3.25;;;;;;;9.36;100.00;99807.09;4983603;28;20030;-70
2023/12/15 07:06:14;;;;;;;5.65;2.70;;;;;;;9.37;100.00;99823.97;4984981;28;20049;-69
2023/12/15 07:08:41;;;;;;;4.45;3.20;;;;;;;9.76;100.00;99880.47;4979363;28;21802;-70
2023/12/15 07:11:06;;;;;;;9.70;5.22;;;;;;;9.90;100.00;99845.41;4965819;28;20031;-69
2023/12/15 07:13:31;;;;;;;7.15;4.38;;;;;;;9.46;100.00;99804.28;4978612;28;20035;-69
2023/12/15 07:15:57;;;;;;;8.25;6.07;;;;;;;9.51;100.00;99826.97;4966947;28;20035;-70
2023/12/15 07:18:22;;;;;;;12.82;10.45;;;;;;;9.57;100.00;99831.91;4977204;28;20034;-72
2023/12/15 07:20:48;;;;;;;17.88;12.02;;;;;;;9.66;100.00;99836.75;4966241;28;20088;-68
2023/12/15 07:23:13;;;;;;;13.18;6.65;;;;;;;9.59;100.00;99855.53;4981495;28;20029;-69
2023/12/15 07:25:38;;;;;;;15.20;7.80;;;;;;;9.82;100.00;99918.41;4985415;28;20172;-70
2023/12/15 07:28:04;;;;;;;12.90;7.70;;;;;;;9.71;100.00;99893.28;4980772;28;20132;-70
2023/12/15 07:30:29;;;;;;;6.28;3.42;;;;;;;9.69;100.00;99925.50;4965820;28;20416;-69
2023/12/15 07:32:56;;;;;;;5.30;4.13;;;;;;;9.74;100.00;99935.53;4983092;28;20051;-69
2023/12/15 07:35:21;;;;;;;6.00;3.95;;;;;;;9.69;100.00;99897.56;4974158;28;20382;-69
2023/12/15 07:37:47;;;;;;;7.07;3.80;;;;;;;9.45;100.00;99860.97;4982968;28;20512;-71
2023/12/15 07:40:12;;;;;;;6.65;5.47;;;;;;;9.43;100.00;99894.84;4959721;28;20027;-69
2023/12/15 07:42:38;;;;;;;11.77;6.82;;;;;;;9.60;100.00;99921.50;4961155;28;20501;-69
2023/12/15 07:45:04;;;;;;;8.93;6.55;;;;;;;9.65;100.00;99865.53;4960989;28;20050;-69
2023/12/15 07:47:29;;;;;;;15.88;10.68;;;;;;;9.74;100.00;99923.69;4983118;28;20512;-70
2023/12/15 07:49:54;;;;;;;19.23;16.88;;;;;;;9.44;100.00;99896.53;4961093;28;20035;-69
2023/12/15 07:52:20;;;;;;;15.85;13.30;;;;;;;9.61;100.00;99929.91;4980357;28;20039;-69
2023/12/15 07:54:45;;;;;;;12.60;9.90;;;;;;;9.29;100.00;99874.91;4965565;28;20050;-69
2023/12/15 07:57:12;;;;;;;10.18;8.98;;;;;;;9.52;100.00;99925.09;4960224;28;20030;-69
2023/12/15 07:59:38;;;;;;;10.52;8.93;;;;;;;9.22;100.00;99872.56;4966090;28;20027;-69
2023/12/15 08:02:04;;;;;;;8.60;6.65;;;;;;;9.42;100.00;99924.47;4960646;28;21722;-69
2023/12/15 08:04:29;;;;;;;9.40;7.75;;;;;;;9.29;100.00;99877.44;4976090;28;20030;-69
2023/12/15 08:06:57;;;;;;;5.00;4.30;;;;;;;8.69;100.00;99806.19;4979621;28;20035;-72
2023/12/15 08:09:22;;;;;;;6.40;5.00;;;;;;;9.14;100.00;99833.88;4981264;28;20445;-69
2023/12/15 08:11:48;;;;;;;8.18;4.60;;;;;;;9.13;100.00;99837.28;4981011;28;20094;-69
2023/12/15 08:14:13;;;;;;;6.53;4.40;;;;;;;9.59;100.00;99883.44;4975267;28;20094;-69
2023/12/15 08:16:39;;;;;;;4.55;3.78;;;;;;;9.75;100.00;99877.09;4983871;28;20093;-70
2023/12/15 08:19:06;;;;;;;8.20;5.43;;;;;;;9.76;100.00;99923.63;4981595;28;20412;-71
2023/12/15 08:21:32;;;;;;;8.90;6.05;;;;;;;9.34;100.00;99865.50;4977572;28;20037;-69
2023/12/15 08:23:57;;;;;;;7.45;5.43;;;;;;;9.65;100.00;99926.44;4981462;28;20034;-69
2023/12/15 08:26:27;;;;;;;11.18;6.78;;;;;;;8.91;100.00;99838.66;4976684;28;20084;-69
2023/12/15 08:28:54;;;;;;;17.92;10.38;;;;;;;9.52;100.00;99940.31;4964360;28;20043;-69
2023/12/15 08:31:23;;;;;;;12.00;8.85;;;;;;;9.22;100.00;99898.75;4959802;28;20038;-69
2023/12/15 08:33:49;;;;;;;14.07;9.20;;;;;;;9.49;100.00;99922.59;4976325;28;20033;-69
2023/12/15 08:36:15;;;;;;;14.90;9.10;;;;;;;9.77;100.00;99921.06;4963199;28;20125;-69
2023/12/15 08:38:41;;;;;;;10.43;6.82;;;;;;;9.41;100.00;99901.66;4964622;28;20584;-69
2023/12/15 08:41:07;;;;;;;12.48;7.50;;;;;;;9.01;100.00;99822.38;4958633;28;20039;-69
2023/12/15 08:43:33;;;;;;;19.98;10.55;;;;;;;9.57;100.00;99901.25;4978306;28;20054;-69
2023/12/15 08:45:58;;;;;;;17.25;10.55;;;;;;;9.58;100.00;99857.25;4981789;28;20122;-69
2023/12/15 08:48:24;;;;;;;16.30;8.80;;;;;;;9.10;100.00;99804.38;4975621;28;20038;-70
2023/12/15 08:50:49;;;;;;;15.13;8.23;;;;;;;9.38;100.00;99841.72;4981837;28;20386;-68
2023/12/15 08:53:18;;;;;;;18.88;11.00;;;;;;;9.21;100.00;99784.69;4966323;28;20058;-68
2023/12/15 08:55:44;;;;;;;21.58;11.75;;;;;;;9.44;100.00;99821.25;4980541;28;20132;-69
2023/12/15 08:58:09;;;;;;;17.48;10.95;;;;;;;9.65;100.00;99799.53;4978008;28;20057;-68
2023/12/15 09:00:36;;;;;;;16.92;11.35;;;;;;;9.14;100.00;99733.28;4961297;28;20034;-72
2023/12/15 09:03:03;;;;;;;14.35;11.18;;;;;;;9.71;100.00;99823.91;4979038;28;20105;-69
2023/12/15 09:05:32;;;;;;;15.68;11.82;;;;;;;9.80;100.00;99833.84;4962865;28;20062;-69
2023/12/15 09:07:59;;;;;;;16.55;13.75;;;;;;;9.63;100.00;99818.25;4957690;28;20030;-69
2023/12/15 09:10:24;;;;;;;17.40;14.10;;;;;;;9.36;100.00;99751.28;4959790;28;20135;-70
2023/12/15 09:12:50;;;;;;;22.48;18.35;;;;;;;9.67;100.00;99830.78;4974148;28;20046;-69
2023/12/15 09:15:16;;;;;;;25.85;19.90;;;;;;;9.69;100.00;99821.44;4960481;28;20030;-70
2023/12/15 09:17:42;;;;;;;23.83;19.45;;;;;;;9.68;100.00;99785.94;4964377;28;20477;-69
2023/12/15 09:20:10;;;;;;;18.13;15.70;;;;;;;9.58;100.00;99780.28;4978683;28;20038;-69
2023/12/15 09:22:35;;;;;;;14.90;12.57;;;;;;;9.55;100.00;99767.66;4959449;28;20055;-71
2023/12/15 09:25:01;;;;;;;14.93;11.35;;;;;;;9.15;100.00;99691.00;4974610;28;20509;-69
2023/12/15 09:27:26;;;;;;;17.50;14.05;;;;;;;9.54;100.00;99735.56;4976402;28;20034;-70
2023/12/15 09:29:51;;;;;;;12.02;9.77;;;;;;;9.55;100.00;99711.84;4964331;28;20054;-69
2023/12/15 09:32:17;;;;;;;13.30;9.93;;;;;;;9.51;100.00;99739.00;4978933;28;20177;-70
2023/12/15 09:34:42;;;;;;;8.40;6.10;;;;;;;9.46;100.00;99740.03;4978676;28;20066;-69
2023/12/15 09:37:08;;;;;;;6.32;3.92;;;;;;;9.37;100.00;99745.34;4981483;28;20034;-69
2023/12/15 09:39:33;;;;;;;4.55;3.35;;;;;;;9.29;100.00;99719.38;4963559;28;20046;-69
2023/12/15 09:41:59;;;;;;;3.83;3.05;;;;;;;9.26;100.00;99694.91;4961723;28;20045;-70
2023/12/15 09:44:24;;;;;;;3.50;2.60;;;;;;;8.89;100.00;99655.38;4964905;28;20034;-69
2023/12/15 09:46:50;;;;;;;4.10;3.47;;;;;;;9.04;100.00;99720.88;4965476;28;20066;-69
2023/12/15 09:49:18;;;;;;;32.30;25.38;;;;;;;8.87;100.00;99603.88;4984951;28;20105;-69
2023/12/15 09:51:53;;;;;;;6.80;5.30;;;;;;;8.84;100.00;99603.97;4965075;28;20077;-69
2023/12/15 09:54:20;;;;;;;5.65;3.10;;;;;;;9.12;100.00;99661.47;4960769;28;20034;-69
2023/12/15 09:56:46;;;;;;;3.17;2.25;;;;;;;9.11;100.00;99639.53;4967206;28;20506;-69
2023/12/15 09:59:13;;;;;;;4.13;3.15;;;;;;;9.17;100.00;99656.28;4980068;28;20512;-69
2023/12/15 10:01:38;;;;;;;4.40;3.67;;;;;;;9.53;100.00;99558.81;4981329;28;20058;-70
2023/12/15 10:04:07;;;;;;;5.82;4.63;;;;;;;9.34;100.00;99550.94;4981097;28;20129;-70
2023/12/15 10:06:36;;;;;;;5.88;5.38;;;;;;;8.94;100.00;99494.69;4960533;28;20382;-70
2023/12/15 10:09:11;;;;;;;5.07;4.07;;;;;;;9.08;100.00;99517.09;4985859;28;20027;-71
2023/12/15 10:11:39;;;;;;;6.60;4.40;;;;;;;9.42;100.00;99561.69;4964529;28;20038;-72
2023/12/15 10:14:07;;;;;;;6.35;4.93;;;;;;;9.05;100.00;99507.03;4983653;28;20030;-69
2023/12/15 10:16:35;;;;;;;10.38;7.90;;;;;;;9.58;100.00;99570.50;4981650;28;20128;-73
2023/12/15 10:19:08;;;;;;;11.02;9.18;;;;;;;9.49;100.00;99555.56;4981148;28;20117;-70
2023/12/15 10:21:35;;;;;;;12.07;9.63;;;;;;;9.05;100.00;99507.03;4971083;28;20034;-69
2023/12/15 10:24:22;;;;;;;12.10;10.60;;;;;;;9.02;100.00;99524.88;4982523;28;20104;-70
2023/12/15 10:26:47;;;;;;;5.38;4.65;;;;;;;9.03;100.00;99564.56;4967830;28;20475;-69
2023/12/15 10:29:18;;;;;;;6.25;5.35;;;;;;;9.20;100.00;99565.75;4964475;28;20146;-70
2023/12/15 10:31:43;;;;;;;5.22;4.70;;;;;;;9.11;100.00;99543.16;4981397;28;20054;-70
2023/12/15 10:34:09;;;;;;;8.45;6.82;;;;;;;8.66;100.00;99511.53;4964215;28;20074;-72
2023/12/15 10:36:36;;;;;;;9.50;7.80;;;;;;;9.20;100.00;99602.94;4979744;28;20480;-70
2023/12/15 10:39:03;;;;;;;10.43;8.75;;;;;;;8.52;100.00;99490.81;4981111;28;20105;-69
2023/12/15 10:41:31;;;;;;;16.80;13.52;;;;;;;8.96;100.00;99611.22;4965079;28;20034;-71
2023/12/15 10:44:00;;;;;;;15.98;12.30;;;;;;;8.58;100.00;99510.91;4977797;28;20034;-71
2023/12/15 10:46:27;;;;;;;10.68;7.70;;;;;;;8.86;100.00;99551.53;4984133;28;20033;-72
2023/12/15 10:48:53;;;;;;;9.43;5.20;;;;;;;9.72;100.00;99498.19;4964810;28;20043;-71
2023/12/15 10:51:20;;;;;;;8.82;6.40;;;;;;;9.76;100.00;99543.72;4963135;28;20026;-70
2023/12/15 10:53:46;;;;;;;7.97;5.80;;;;;;;8.67;100.00;99503.91;4965432;28;20416;-70
2023/12/15 10:56:12;;;;;;;5.55;3.55;;;;;;;8.73;100.00;99541.72;4980714;28;20078;-69
2023/12/15 10:58:38;;;;;;;6.95;4.88;;;;;;;8.58;100.00;99516.81;4978173;28;20034;-69
2023/12/15 11:01:09;;;;;;;8.55;5.05;;;;;;;8.53;100.00;99538.09;4980316;28;20034;-70
2023/12/15 11:03:35;;;;;;;11.32;7.32;;;;;;;8.69;100.00;99539.34;4961928;28;20042;-69
2023/12/15 11:06:00;;;;;;;21.98;11.27;;;;;;;8.47;100.00;99530.66;4979817;28;20040;-70
2023/12/15 11:08:26;;;;;;;23.02;11.32;;;;;;;8.54;100.00;99494.13;4980035;28;20125;-69
2023/12/15 11:10:52;;;;;;;4.40;2.67;;;;;;;8.69;100.00;99593.34;4962484;28;20145;-69
2023/12/15 11:13:52;;;;;;;3.78;2.60;;;;;;;8.75;100.00;99595.72;4982520;28;20560;-69
2023/12/15 11:16:18;;;;;;;5.78;4.00;;;;;;;8.61;100.00;99577.56;4979511;28;20033;-69
2023/12/15 11:18:45;;;;;;;7.35;4.50;;;;;;;8.84;100.00;99625.06;4967379;28;20066;-69
2023/12/15 11:21:11;;;;;;;6.28;4.18;;;;;;;8.85;100.00;99625.91;4977520;28;20501;-72